Huvudsida
METAR-TAF:

METAR-TAF

Flygplatser :

Gran Canarias flygplats

Gran Canaria, Spanien

latitud: 27-56N, longitud: 015-23W, höjd: 23 m

Aktuellt väderrapport

Denna rapport gjordes för 36 minuter sedan, klockan 14:00 UTC
Vind 12 kt från nord/nordost
Temperatur 22°C
Fuktighet 57%
Tryck 1015 hPa
Sikt 10 km eller mer
Få moln på en höjd av 4000 ft
Brutna moln på en höjd av 5000 ft

METAR: GCLP 161400Z 03012KT 9999 FEW040 BKN050 22/13 Q1015 NOSIG

Tid: 14:36 (14:36 UTC)

Väderprognos

Denna rapport gjordes för 6 timmar och 36 minuter sedan, klockan 08:00 UTC
Prognos gäller från 16 kl. 09 UTC till 17 kl. 09 UTC
Vind 10 kt från nord
Sikt 10 km eller mer
Få moln på en höjd av 3000 ft
Temporärt
från 16 kl. 11 UTC till 16 kl. 21 UTC
Vind 7 kt från sydost
Blir
från 16 kl. 21 UTC till 16 kl. 24 UTC
Vind 5 kt från väst

TAF: GCLP 160800Z 1609/1709 36010KT 9999 FEW030 TX22/1614Z TN16/1706Z TEMPO 1611/1621 14007KT BECMG 1621/1624 27005KT

Aktuella väderrapporter och prognoser från 4000 flygplatser (METAR- och TAF-rapporter).

De tillgängliga stationerna syns som gula och röda prickar på kartan.

För musen över prickarna för att se namnen på stationerna.

Klicka sedan för att få väderrapporter och prognoser.

För att ändra kartan: Klicka på de gröna knapparna med ett svart kors på för att zooma in; den gröna knappen med ett streck på för att zooma ut; eller på de gröna pilarna för angränsande kartor.


METAR-TAF: